X  Sluiten METAR luchtvaart weer gegevens      EHRD Rotterdam The Hague Airport
Temperatuur
2°C Temperatuur
2°C Dauwpunt
100% Vochtigheid



Wind
5 KM/U
3 MPH
1 M/S
3 KTS



310°
NW
Huidig weer

Helder Helder
Luchtdruk 1042.91 (hPa) - 30.8 (inHg)
Zicht 3.7 (mijl) - 6 (km)
Vliegveld
Vliegveld code EHRD

Locatie : Rotterdam The Hague Airport
Afstand: 16 (km)

Metar:
EHRD 060525Z AUTO 31003KT 6000 NSC 02/02 Q1043 NOSIG

Tijd: 06-02-2023 06:25 CET